Αναφορές Αεροδρομίων

 

KSJC - San Jose, California, USA
Distance from station: ΒΑ 14km
Ενημερώθηκε: 26/02/2021 23:53
Few Clouds
Few Clouds
 Ανεμος από ΒΒΔ
Ανεμος: ΒΒΔ 28 km/h
Θερμοκρασία: 16°C
Σημείο Δρόσου: 4°C
Υγρασία: 45%
Βαρόμετρο: 1020.3 hPa
Clouds: Few Clouds
Visibility: 16 km
Cloud details: Few Clouds 2438 m
2021/02/26 21:53 KSJC 262153Z 33015KT 10SM FEW080 16/04 A3013 RMK AO2 SLP201 T01610039
KNUQ - Moffett Nas/Mtn, California, USA
Distance from station: Β 14km
Ενημερώθηκε: 27/02/2021 00:15
Αίθριος
Αίθριος
 Ανεμος από ΒΔ
Ανεμος: ΒΔ 20 km/h, Ριπή: 33 km/h
Θερμοκρασία: 16°C
Σημείο Δρόσου: 5°C
Υγρασία: 48%
Βαρόμετρο: 1019.6 hPa
Clouds: Αίθριος
Visibility: 14 km
2021/02/26 22:15 KNUQ 262215Z AUTO 32011G18KT 9SM CLR 16/05 A3011 RMK AO2
 
KPAO - Palo Alto, California, USA
Distance from station: ΒΒΔ 23km
Ενημερώθηκε: 26/02/2021 23:47
Αίθριος
Αίθριος
 Ανεμος από ΔΒΔ
Ανεμος: ΔΒΔ 33 km/h
Θερμοκρασία: 16°C
Σημείο Δρόσου: 5°C
Υγρασία: 48%
Βαρόμετρο: 1020.3 hPa
Clouds: Αίθριος
Visibility: 16 km
2021/02/26 21:47 KPAO 262147Z 30018KT 10SM SKC 16/05 A3013
KRHV - San Jose/Reid, California, USA
Distance from station: ΑΒΑ 19km
Ενημερώθηκε: 26/02/2021 23:47
Αίθριος
Αίθριος
 Ανεμος από ΔΒΔ
Ανεμος: ΔΒΔ 22 km/h
Θερμοκρασία: 17°C
Σημείο Δρόσου: 4°C
Υγρασία: 42%
Βαρόμετρο: 1020 hPa
Clouds: Αίθριος
Visibility: 16 km
2021/02/26 21:47 KRHV 262147Z 30012KT 10SM SKC 17/04 A3012
 
KOAK - Oakland, California, USA
Distance from station: ΒΒΔ 50km
Ενημερώθηκε: 26/02/2021 23:53
Few Clouds
Few Clouds
 Ανεμος από ΔΝΔ
Ανεμος: ΔΝΔ 13 km/h
Θερμοκρασία: 17°C
Σημείο Δρόσου: 6°C
Υγρασία: 49%
Βαρόμετρο: 1020.7 hPa
Clouds: Few Clouds
Visibility: 16 km
Cloud details: Few Clouds 305 m
2021/02/26 21:53 KOAK 262153Z 24007KT 10SM FEW010 17/06 A3014 RMK AO2 SLP205 T01720056
KSQL - San Carlos Airpo, California, USA
Distance from station: ΒΔ 34km
Ενημερώθηκε: 26/02/2021 23:47
Αίθριος
Αίθριος
 Ανεμος από Δ
Ανεμος: Δ 19 km/h, Ριπή: 37 km/h
Θερμοκρασία: 15°C
Σημείο Δρόσου: 5°C
Υγρασία: 51%
Βαρόμετρο: 1020.7 hPa
Clouds: Αίθριος
Visibility: 16 km
2021/02/26 21:47 KSQL 262147Z 27010G20KT 10SM SKC 15/05 A3014
 
KSFO - San Francisco, California, USA
Distance from station: ΒΔ 49km
Ενημερώθηκε: 26/02/2021 23:56
Few Clouds
Few Clouds
 Ανεμος από ΔΒΔ
Ανεμος: ΔΒΔ 46 km/h, Ριπή: 54 km/h
Θερμοκρασία: 15°C
Σημείο Δρόσου: 6°C
Υγρασία: 55%
Βαρόμετρο: 1020.3 hPa
Clouds: Few Clouds
Visibility: 16 km
Cloud details: Few Clouds 610 m
2021/02/26 21:56 KSFO 262156Z 29025G29KT 10SM FEW020 15/06 A3013 RMK AO2 PK WND 30030/2142 SLP202 T01500061
KE16 - San Martin, California, USA
Distance from station: ΑΝΑ 43km
Ενημερώθηκε: 27/02/2021 00:15
Αίθριος
Αίθριος
 Ανεμος από ΔΒΔ
Ανεμος: ΔΒΔ 30 km/h, Ριπή: 41 km/h
Θερμοκρασία: 18°C
Σημείο Δρόσου: 1°C
Υγρασία: 32%
Βαρόμετρο: 1019.3 hPa
Clouds: Αίθριος
Visibility: 16 km
2021/02/26 22:15 KE16 262215Z AUTO 29016G22KT 10SM CLR 18/01 A3010 RMK AO2
 
KWVI - Watsonville, California, USA
Distance from station: ΝΝΑ 44km
Ενημερώθηκε: 26/02/2021 23:53
Αίθριος
Αίθριος
 Ανεμος από Ν
Ανεμος: Ν 7 km/h
Θερμοκρασία: 16°C
Σημείο Δρόσου: 4°C
Υγρασία: 45%
Βαρόμετρο: 1020 hPa
Clouds: Αίθριος
Visibility: 16 km
2021/02/26 21:53 KWVI 262153Z AUTO 17004KT 10SM CLR 16/04 A3012 RMK AO2 SLP198 T01560044
KHAF - Half Moon Bay, California, USA
Distance from station: ΔΒΔ 50km
Ενημερώθηκε: 27/02/2021 00:15
Haze, Αίθριος
Haze, Αίθριος
 Ανεμος από ΒΒΔ
Ανεμος: ΒΒΔ 31 km/h, Ριπή: 50 km/h
Θερμοκρασία: 12°C
Σημείο Δρόσου: 7°C
Υγρασία: 72%
Βαρόμετρο: 1021 hPa
Περίληψη: Haze
Clouds: Αίθριος
Visibility: 8 km
2021/02/26 22:15 KHAF 262215Z AUTO 34017G27KT 5SM HZ CLR 12/07 A3015 RMK AO2
 
KHWD - Hayward, California, USA
Distance from station: Β 44km
Ενημερώθηκε: 26/02/2021 23:54
Αίθριος
Αίθριος
 Ανεμος από Δ
Ανεμος: Δ 22 km/h
Θερμοκρασία: 16°C
Σημείο Δρόσου: 5°C
Υγρασία: 48%
Βαρόμετρο: 1020 hPa
Clouds: Αίθριος
Visibility: 16 km
2021/02/26 21:54 KHWD 262154Z 26012KT 10SM CLR 16/05 A3012 RMK AO2 SLP209 T01560050
KLVK - Livermore, California, USA
Distance from station: ΒΒΑ 51km
Ενημερώθηκε: 26/02/2021 23:53
Αίθριος
Αίθριος
 Ανεμος από Δ
Ανεμος: Δ 17 km/h
Θερμοκρασία: 18°C
Σημείο Δρόσου: 3°C
Υγρασία: 37%
Βαρόμετρο: 1019.3 hPa
Clouds: Αίθριος
Visibility: 16 km
2021/02/26 21:53 KLVK 262153Z 28009KT 10SM CLR 18/03 A3010 RMK AO2 SLP192 T01780028